createdAt,value
2018-04-16T00:01:28.228Z,98877.19
2018-04-16T00:03:55.824Z,98886.16
2018-04-16T00:06:23.329Z,98902.47
2018-04-16T00:08:50.888Z,98908.75
2018-04-16T00:11:18.510Z,98926.15
2018-04-16T00:13:46.007Z,98937.34
2018-04-16T00:16:13.567Z,98934.63
2018-04-16T00:18:41.150Z,98947.43
2018-04-16T00:21:08.689Z,98949.05
2018-04-16T00:23:36.242Z,98958.63
2018-04-16T00:26:03.787Z,98956.16
2018-04-16T00:28:31.324Z,98955.84
2018-04-16T00:30:58.998Z,98948.83
2018-04-16T00:33:32.794Z,98960.76
2018-04-16T00:36:05.936Z,98956.27
2018-04-16T00:38:39.000Z,98943.81
2018-04-16T00:41:11.997Z,98934.72
2018-04-16T00:43:44.974Z,98922.95
2018-04-16T00:46:18.046Z,98917.06
2018-04-16T00:48:51.109Z,98906.98
2018-04-16T00:51:24.149Z,98887.89
2018-04-16T00:54:08.875Z,98888.73
2018-04-16T00:56:41.839Z,98899.42
2018-04-16T00:59:14.975Z,98904.67
2018-04-16T01:01:48.020Z,98912.41
2018-04-16T01:04:20.983Z,98919.14
2018-04-16T01:06:54.015Z,98918.20
2018-04-16T01:09:27.084Z,98923.66
2018-04-16T01:12:00.110Z,98930.29
2018-04-16T01:14:33.455Z,98940.95
2018-04-16T01:17:07.507Z,98957.50
2018-04-16T01:19:40.475Z,98957.05
2018-04-16T01:22:13.503Z,98951.03
2018-04-16T01:24:46.523Z,98961.73
2018-04-16T01:27:19.499Z,98966.16
2018-04-16T01:29:52.416Z,98971.52
2018-04-16T01:32:26.294Z,98973.88
2018-04-16T01:34:59.420Z,98969.52
2018-04-16T01:37:32.805Z,98969.39
2018-04-16T01:40:05.757Z,98979.34
2018-04-16T01:42:38.716Z,98978.14
2018-04-16T01:45:11.796Z,98978.47
2018-04-16T01:47:44.690Z,98970.20
2018-04-16T01:50:17.680Z,98963.09
2018-04-16T01:52:50.713Z,98969.05
2018-04-16T01:55:23.756Z,98961.31
2018-04-16T01:57:56.810Z,98960.87
2018-04-16T02:00:29.778Z,98945.54
2018-04-16T02:03:02.940Z,98949.58
2018-04-16T02:05:35.929Z,98949.37
2018-04-16T02:08:08.867Z,98943.94
2018-04-16T02:10:41.814Z,98933.89
2018-04-16T02:13:14.813Z,98930.50
2018-04-16T02:18:53.958Z,98933.92
2018-04-16T02:21:27.025Z,98929.44
2018-04-16T02:24:00.027Z,98925.43
2018-04-16T02:26:33.083Z,98928.34
2018-04-16T02:29:06.071Z,98921.94
2018-04-16T02:31:39.208Z,98922.55
2018-04-16T02:37:20.565Z,98938.56
2018-04-16T02:39:53.694Z,98942.70
2018-04-16T02:42:26.739Z,98939.42
2018-04-16T02:44:59.730Z,98928.04
2018-04-16T02:47:32.703Z,98923.20
2018-04-16T02:50:05.640Z,98925.36
2018-04-16T02:52:38.763Z,98920.44
2018-04-16T02:55:11.785Z,98911.84
2018-04-16T02:57:44.797Z,98905.22
2018-04-16T03:00:17.783Z,98903.27
2018-04-16T03:02:50.927Z,98905.55
2018-04-16T03:05:24.002Z,98917.76
2018-04-16T03:07:57.055Z,98920.20
2018-04-16T03:10:30.016Z,98915.62
2018-04-16T03:13:03.034Z,98906.08
2018-04-16T03:15:36.123Z,98901.09
2018-04-16T03:18:09.186Z,98910.98
2018-04-16T03:20:42.511Z,98914.47
2018-04-16T03:23:15.467Z,98915.45
2018-04-16T03:25:49.271Z,98907.34
2018-04-16T03:28:22.232Z,98904.67
2018-04-16T03:30:55.179Z,98900.05
2018-04-16T03:33:28.124Z,98897.20
2018-04-16T03:36:01.154Z,98890.08
2018-04-16T03:38:34.490Z,98883.55
2018-04-16T03:41:07.499Z,98876.83
2018-04-16T03:43:40.465Z,98883.02
2018-04-16T03:46:13.443Z,98877.94
2018-04-16T03:48:46.399Z,98870.34
2018-04-16T03:51:14.774Z,98872.33
2018-04-16T03:53:52.946Z,98885.06
2018-04-16T03:56:20.427Z,98901.13
2018-04-16T03:58:48.008Z,98916.72
2018-04-16T04:01:15.616Z,98931.80
2018-04-16T04:03:43.057Z,98942.64
2018-04-16T04:06:10.700Z,98949.60
2018-04-16T04:08:38.176Z,98950.92
2018-04-16T04:11:05.644Z,98947.89
2018-04-16T04:13:33.188Z,98947.11
2018-04-16T04:16:00.706Z,98950.73
2018-04-16T04:18:28.248Z,98947.83
2018-04-16T04:20:55.744Z,98953.41
2018-04-16T04:26:35.594Z,98933.05
2018-04-16T04:29:14.760Z,98942.57
2018-04-16T04:31:42.234Z,98930.95
2018-04-16T04:34:09.740Z,98937.68
2018-04-16T04:36:37.250Z,98930.08
2018-04-16T04:39:04.770Z,98921.88
2018-04-16T04:41:32.253Z,98909.84
2018-04-16T04:43:59.740Z,98916.84
2018-04-16T04:46:27.212Z,98918.19
2018-04-16T04:48:54.807Z,98924.02
2018-04-16T04:51:22.286Z,98927.47
2018-04-16T04:53:49.764Z,98928.77
2018-04-16T04:56:17.243Z,98933.92
2018-04-16T04:58:44.701Z,98939.88
2018-04-16T05:01:12.194Z,98930.75
2018-04-16T05:03:39.716Z,98936.06
2018-04-16T05:06:07.206Z,98934.11
2018-04-16T05:08:34.743Z,98931.70
2018-04-16T05:11:02.275Z,98928.91
2018-04-16T05:13:29.867Z,98921.58
2018-04-16T05:15:57.339Z,98923.38
2018-04-16T05:18:24.827Z,98934.32
2018-04-16T05:20:52.355Z,98935.05
2018-04-16T05:23:19.839Z,98929.06
2018-04-16T05:25:47.362Z,98943.27
2018-04-16T05:28:14.850Z,98930.89
2018-04-16T05:30:42.375Z,98935.10
2018-04-16T05:33:09.891Z,98933.03
2018-04-16T05:35:37.390Z,98933.39
2018-04-16T05:38:04.946Z,98933.33
2018-04-16T05:40:32.472Z,98939.25
2018-04-16T05:42:59.958Z,98930.84
2018-04-16T05:45:27.450Z,98932.84
2018-04-16T05:47:54.953Z,98939.55
2018-04-16T05:50:22.486Z,98941.14
2018-04-16T05:52:50.028Z,98951.17
2018-04-16T05:55:17.483Z,98956.17
2018-04-16T05:57:44.974Z,98951.47
2018-04-16T06:00:12.461Z,98955.72
2018-04-16T06:02:39.943Z,98951.23
2018-04-16T06:05:07.430Z,98946.63
2018-04-16T06:07:34.958Z,98937.83
2018-04-16T06:10:02.441Z,98936.08
2018-04-16T06:12:29.979Z,98939.17
2018-04-16T06:14:57.458Z,98947.67
2018-04-16T06:17:24.921Z,98956.74
2018-04-16T06:19:52.492Z,98961.92
2018-04-16T06:22:20.052Z,98958.72
2018-04-16T06:24:47.563Z,98946.27
2018-04-16T06:27:15.067Z,98939.06
2018-04-16T06:29:42.581Z,98926.13
2018-04-16T06:32:10.119Z,98933.92
2018-04-16T06:34:37.628Z,98947.91
2018-04-16T06:37:05.123Z,98959.45
2018-04-16T06:39:32.621Z,98960.34
2018-04-16T06:42:00.168Z,98968.60
2018-04-16T06:44:27.885Z,98966.02
2018-04-16T06:46:55.811Z,98962.51
2018-04-16T06:49:23.283Z,98969.38
2018-04-16T06:51:50.812Z,98982.03
2018-04-16T06:54:18.455Z,98974.06
2018-04-16T06:56:46.020Z,98971.69
2018-04-16T06:59:13.524Z,98962.94
2018-04-16T07:01:41.031Z,98968.86
2018-04-16T07:04:08.568Z,98970.36
2018-04-16T07:06:36.070Z,98969.67
2018-04-16T07:09:03.572Z,98974.63
2018-04-16T07:11:31.099Z,98972.55
2018-04-16T07:13:59.284Z,98973.84
2018-04-16T07:16:26.812Z,98973.56
2018-04-16T07:18:54.317Z,98971.08
2018-04-16T07:21:21.832Z,98972.70
2018-04-16T07:23:49.483Z,98974.99
2018-04-16T07:26:18.552Z,98977.95
2018-04-16T07:28:46.067Z,98982.54
2018-04-16T07:31:13.555Z,98975.41
2018-04-16T07:36:13.329Z,98968.20
2018-04-16T07:38:43.074Z,98965.50
2018-04-16T07:41:10.654Z,98951.75
2018-04-16T07:43:38.269Z,98953.04
2018-04-16T07:46:05.775Z,98956.23
2018-04-16T07:48:33.258Z,98956.76
2018-04-16T07:51:00.777Z,98960.56
2018-04-16T07:53:28.342Z,98960.78
2018-04-16T07:55:55.855Z,98959.34
2018-04-16T07:58:23.430Z,98962.64
2018-04-16T08:00:50.921Z,98974.63
2018-04-16T08:03:18.402Z,98989.80
2018-04-16T08:05:45.879Z,98994.54
2018-04-16T08:08:13.394Z,98997.61
2018-04-16T08:10:41.015Z,98995.29
2018-04-16T08:13:08.547Z,98976.69
2018-04-16T08:15:36.161Z,98980.51
2018-04-16T08:18:03.662Z,98990.33
2018-04-16T08:20:31.180Z,98983.90
2018-04-16T08:22:58.729Z,98978.89
2018-04-16T08:25:26.226Z,98982.14
2018-04-16T08:27:53.743Z,98988.04
2018-04-16T08:30:21.251Z,98991.83
2018-04-16T08:32:48.914Z,98997.15
2018-04-16T08:35:16.408Z,99004.04
2018-04-16T08:37:43.988Z,99006.27
2018-04-16T08:42:45.368Z,99010.97
2018-04-16T08:45:12.863Z,99015.06
2018-04-16T08:47:40.343Z,99022.20
2018-04-16T08:50:07.870Z,99028.31
2018-04-16T08:52:35.369Z,99038.40
2018-04-16T08:55:03.178Z,99043.50
2018-04-16T08:57:30.961Z,99050.64
2018-04-16T08:59:59.475Z,99054.44
2018-04-16T09:02:27.007Z,99058.18
2018-04-16T09:04:54.494Z,99058.84
2018-04-16T09:07:22.017Z,99064.97
2018-04-16T09:09:49.482Z,99066.27
2018-04-16T09:12:16.972Z,99066.31
2018-04-16T09:14:44.554Z,99061.50
2018-04-16T09:17:12.105Z,99066.71
2018-04-16T09:19:40.762Z,99069.02
2018-04-16T09:22:15.352Z,99073.71
2018-04-16T09:24:42.908Z,99067.59
2018-04-16T09:27:10.416Z,99068.73
2018-04-16T09:29:37.987Z,99071.58
2018-04-16T09:32:05.562Z,99069.77
2018-04-16T09:34:33.095Z,99080.34
2018-04-16T09:37:00.655Z,99076.91
2018-04-16T09:39:28.193Z,99076.39
2018-04-16T09:41:55.688Z,99077.78
2018-04-16T09:44:23.280Z,99070.30
2018-04-16T09:46:50.810Z,99075.56
2018-04-16T09:49:18.355Z,99085.11
2018-04-16T09:51:45.855Z,99085.52
2018-04-16T09:54:13.444Z,99090.02
2018-04-16T09:56:41.240Z,99088.38
2018-04-16T09:59:08.738Z,99096.76
2018-04-16T10:01:38.404Z,99096.73
2018-04-16T10:04:06.320Z,99091.91
2018-04-16T10:06:33.915Z,99106.95
2018-04-16T10:09:01.486Z,99104.55
2018-04-16T10:11:29.006Z,99107.42
2018-04-16T10:13:56.495Z,99107.92
2018-04-16T10:16:23.998Z,99102.01
2018-04-16T10:18:51.664Z,99109.73
2018-04-16T10:21:19.185Z,99103.84
2018-04-16T10:23:46.804Z,99108.55
2018-04-16T10:26:14.324Z,99101.27
2018-04-16T10:28:42.057Z,99092.47
2018-04-16T10:31:09.514Z,99092.72
2018-04-16T10:33:37.044Z,99095.88
2018-04-16T10:36:04.571Z,99096.09
2018-04-16T10:38:32.083Z,99095.63
2018-04-16T10:40:59.620Z,99107.96
2018-04-16T10:43:27.419Z,99105.85
2018-04-16T10:45:54.943Z,99104.09
2018-04-16T10:48:22.437Z,99112.39
2018-04-16T10:50:49.936Z,99108.31
2018-04-16T10:53:17.423Z,99102.73
2018-04-16T10:55:49.671Z,99107.43
2018-04-16T10:58:17.217Z,99117.31
2018-04-16T11:00:44.707Z,99114.88
2018-04-16T11:03:12.204Z,99120.58
2018-04-16T11:05:39.976Z,99120.44
2018-04-16T11:08:07.477Z,99131.52
2018-04-16T11:10:34.983Z,99134.67
2018-04-16T11:13:02.617Z,99135.51
2018-04-16T11:15:30.067Z,99136.22
2018-04-16T11:17:57.605Z,99138.73
2018-04-16T11:20:25.136Z,99137.04
2018-04-16T11:22:52.700Z,99149.91
2018-04-16T11:25:20.176Z,99149.64
2018-04-16T11:27:51.509Z,99144.24
2018-04-16T11:30:21.597Z,99147.91
2018-04-16T11:32:49.095Z,99163.20
2018-04-16T11:35:16.561Z,99158.09
2018-04-16T11:37:44.225Z,99169.06
2018-04-16T11:40:11.792Z,99157.70
2018-04-16T11:42:39.335Z,99163.77
2018-04-16T11:45:13.635Z,99157.59
2018-04-16T11:47:42.389Z,99163.59
2018-04-16T11:50:09.879Z,99177.30
2018-04-16T11:52:37.389Z,99176.66
2018-04-16T11:55:04.873Z,99191.13
2018-04-16T12:00:04.539Z,99177.79
2018-04-16T12:02:32.017Z,99194.48
2018-04-16T12:04:59.528Z,99197.84
2018-04-16T12:07:29.579Z,99208.91
2018-04-16T12:09:57.169Z,99192.27
2018-04-16T12:12:24.771Z,99189.78
2018-04-16T12:14:52.304Z,99209.52
2018-04-16T12:17:19.805Z,99198.22
2018-04-16T12:19:47.288Z,99202.78
2018-04-16T12:22:14.793Z,99198.05
2018-04-16T12:24:42.921Z,99218.77
2018-04-16T12:27:10.449Z,99214.78
2018-04-16T12:29:38.011Z,99199.88
2018-04-16T12:32:05.584Z,99214.64
2018-04-16T12:34:33.078Z,99206.90
2018-04-16T12:37:00.691Z,99204.56
2018-04-16T12:39:28.242Z,99206.75
2018-04-16T12:41:55.770Z,99203.99
2018-04-16T12:44:23.274Z,99205.28
2018-04-16T12:46:51.650Z,99217.28
2018-04-16T12:49:19.156Z,99204.86
2018-04-16T12:51:50.672Z,99216.30
2018-04-16T12:54:18.184Z,99212.75
2018-04-16T12:56:45.710Z,99211.00
2018-04-16T12:59:13.207Z,99210.23
2018-04-16T13:01:40.794Z,99212.38
2018-04-16T13:04:08.379Z,99221.38
2018-04-16T13:06:35.913Z,99224.00
2018-04-16T13:09:03.452Z,99226.86
2018-04-16T13:11:31.008Z,99226.14
2018-04-16T13:13:58.533Z,99224.78
2018-04-16T13:16:26.058Z,99221.24
2018-04-16T13:18:53.596Z,99214.13
2018-04-16T13:21:21.105Z,99207.87
2018-04-16T13:23:48.604Z,99212.52
2018-04-16T13:26:18.383Z,99208.53
2018-04-16T13:28:45.947Z,99201.77
2018-04-16T13:31:13.515Z,99205.59
2018-04-16T13:33:41.046Z,99212.93
2018-04-16T13:36:08.563Z,99206.62
2018-04-16T13:38:36.131Z,99200.94
2018-04-16T13:41:03.665Z,99204.50
2018-04-16T13:43:31.182Z,99203.28
2018-04-16T13:45:58.862Z,99218.16
2018-04-16T13:48:26.365Z,99231.55
2018-04-16T13:50:54.633Z,99227.51
2018-04-16T13:53:22.244Z,99218.45
2018-04-16T13:55:49.801Z,99246.68
2018-04-16T13:58:18.103Z,99237.30
2018-04-16T14:00:45.655Z,99226.14
2018-04-16T14:03:13.194Z,99224.79
2018-04-16T14:05:40.707Z,99242.59
2018-04-16T14:08:08.210Z,99228.23
2018-04-16T14:10:35.714Z,99243.05
2018-04-16T14:13:03.202Z,99225.14
2018-04-16T14:15:30.706Z,99242.24
2018-04-16T14:17:58.253Z,99234.02
2018-04-16T14:20:25.755Z,99243.61
2018-04-16T14:22:53.299Z,99248.98
2018-04-16T14:25:20.787Z,99240.63
2018-04-16T14:27:48.266Z,99240.72
2018-04-16T14:30:15.778Z,99235.64
2018-04-16T14:32:43.254Z,99242.55
2018-04-16T14:35:10.738Z,99246.70
2018-04-16T14:37:38.230Z,99246.67
2018-04-16T14:40:05.730Z,99257.49
2018-04-16T14:42:33.206Z,99266.14
2018-04-16T14:45:00.747Z,99272.30
2018-04-16T14:47:28.826Z,99247.42
2018-04-16T14:49:56.294Z,99260.66
2018-04-16T14:52:23.798Z,99244.81
2018-04-16T14:54:51.308Z,99246.19
2018-04-16T14:57:18.794Z,99240.07
2018-04-16T14:59:46.293Z,99267.00
2018-04-16T15:02:13.777Z,99255.95
2018-04-16T15:04:41.282Z,99247.45
2018-04-16T15:07:08.837Z,99249.80
2018-04-16T15:09:36.327Z,99266.42
2018-04-16T15:12:03.808Z,99257.56
2018-04-16T15:14:31.313Z,99266.03
2018-04-16T15:16:58.800Z,99269.61
2018-04-16T15:19:26.368Z,99268.28
2018-04-16T15:21:53.854Z,99267.02
2018-04-16T15:24:21.323Z,99271.73
2018-04-16T15:26:48.908Z,99274.38
2018-04-16T15:29:16.391Z,99287.56
2018-04-16T15:31:43.862Z,99290.42
2018-04-16T15:34:11.357Z,99281.98
2018-04-16T15:36:38.911Z,99284.13
2018-04-16T15:39:06.495Z,99285.34
2018-04-16T15:41:33.961Z,99275.34
2018-04-16T15:44:01.450Z,99294.68
2018-04-16T15:46:28.986Z,99283.81
2018-04-16T15:48:56.492Z,99283.55
2018-04-16T15:51:24.055Z,99286.65
2018-04-16T15:53:51.591Z,99278.22
2018-04-16T15:56:19.051Z,99282.68
2018-04-16T15:58:46.621Z,99289.47
2018-04-16T16:01:14.183Z,99294.89
2018-04-16T16:03:41.654Z,99292.59
2018-04-16T16:06:09.588Z,99293.48
2018-04-16T16:08:37.140Z,99301.61
2018-04-16T16:11:04.650Z,99303.57
2018-04-16T16:16:05.861Z,99310.48
2018-04-16T16:18:33.371Z,99310.46
2018-04-16T16:21:00.878Z,99309.53
2018-04-16T16:23:28.988Z,99313.16
2018-04-16T16:25:56.502Z,99303.29
2018-04-16T16:28:24.030Z,99305.00
2018-04-16T16:30:51.525Z,99300.11
2018-04-16T16:33:19.032Z,99294.75
2018-04-16T16:35:46.573Z,99295.50
2018-04-16T16:38:14.068Z,99296.66
2018-04-16T16:40:41.568Z,99296.29
2018-04-16T16:43:09.174Z,99298.73
2018-04-16T16:45:36.666Z,99296.34
2018-04-16T16:48:04.179Z,99293.14
2018-04-16T16:50:31.646Z,99292.24
2018-04-16T16:52:59.173Z,99292.19
2018-04-16T16:55:26.651Z,99295.95
2018-04-16T16:57:54.146Z,99303.69
2018-04-16T17:00:21.658Z,99309.73
2018-04-16T17:02:49.135Z,99309.45
2018-04-16T17:05:16.679Z,99308.42
2018-04-16T17:07:44.172Z,99309.22
2018-04-16T17:10:11.715Z,99325.30
2018-04-16T17:12:39.217Z,99316.49
2018-04-16T17:15:06.729Z,99320.70
2018-04-16T17:17:34.209Z,99318.94
2018-04-16T17:20:01.778Z,99328.42
2018-04-16T17:22:29.207Z,99336.48
2018-04-16T17:24:56.680Z,99345.63
2018-04-16T17:27:24.183Z,99354.25
2018-04-16T17:29:51.650Z,99354.70
2018-04-16T17:32:19.135Z,99362.53
2018-04-16T17:34:46.589Z,99366.51
2018-04-16T17:37:14.041Z,99372.20
2018-04-16T17:39:41.522Z,99373.55
2018-04-16T17:42:09.011Z,99383.41
2018-04-16T17:44:36.502Z,99375.71
2018-04-16T17:47:03.981Z,99380.77
2018-04-16T17:49:31.439Z,99386.34
2018-04-16T17:51:59.199Z,99383.17
2018-04-16T17:54:26.701Z,99390.30
2018-04-16T17:56:54.163Z,99382.97
2018-04-16T17:59:21.626Z,99395.73
2018-04-16T18:01:49.109Z,99395.78
2018-04-16T18:04:16.576Z,99416.90
2018-04-16T18:06:44.056Z,99412.89
2018-04-16T18:09:11.541Z,99412.79
2018-04-16T18:11:39.042Z,99417.47
2018-04-16T18:14:06.542Z,99414.87
2018-04-16T18:16:34.010Z,99415.33
2018-04-16T18:19:01.548Z,99417.83
2018-04-16T18:21:29.087Z,99424.48
2018-04-16T18:23:56.562Z,99423.61
2018-04-16T18:26:24.017Z,99432.38
2018-04-16T18:28:51.490Z,99431.21
2018-04-16T18:31:18.974Z,99435.46
2018-04-16T18:33:46.438Z,99436.04
2018-04-16T18:36:13.931Z,99443.05
2018-04-16T18:38:41.404Z,99436.84
2018-04-16T18:41:08.862Z,99443.34
2018-04-16T18:43:36.347Z,99460.25
2018-04-16T18:46:04.123Z,99455.64
2018-04-16T18:48:31.600Z,99468.11
2018-04-16T18:51:00.117Z,99463.92
2018-04-16T18:53:27.604Z,99471.57
2018-04-16T18:55:55.226Z,99477.27
2018-04-16T18:58:22.722Z,99480.72
2018-04-16T19:00:50.367Z,99481.65
2018-04-16T19:03:17.831Z,99508.69
2018-04-16T19:05:45.311Z,99495.93
2018-04-16T19:08:12.782Z,99492.56
2018-04-16T19:10:40.278Z,99489.31
2018-04-16T19:13:07.778Z,99493.45
2018-04-16T19:15:35.259Z,99491.49
2018-04-16T19:18:02.726Z,99504.73
2018-04-16T19:20:35.696Z,99504.15
2018-04-16T19:23:04.736Z,99507.59
2018-04-16T19:25:33.193Z,99511.77
2018-04-16T19:28:06.373Z,99509.44
2018-04-16T19:30:34.094Z,99517.80
2018-04-16T19:33:07.222Z,99523.17
2018-04-16T19:35:35.478Z,99525.27
2018-04-16T19:38:02.949Z,99533.23
2018-04-16T19:40:30.499Z,99539.20
2018-04-16T19:42:58.041Z,99529.06
2018-04-16T19:45:25.518Z,99534.30
2018-04-16T19:47:54.275Z,99537.09
2018-04-16T19:50:21.759Z,99566.04
2018-04-16T19:52:49.290Z,99565.75
2018-04-16T19:55:16.791Z,99554.72
2018-04-16T19:57:49.696Z,99556.67
2018-04-16T20:00:17.207Z,99571.02
2018-04-16T20:02:50.344Z,99566.79
2018-04-16T20:05:17.887Z,99570.27
2018-04-16T20:07:46.032Z,99573.17
2018-04-16T20:10:13.764Z,99572.19
2018-04-16T20:12:41.535Z,99580.92
2018-04-16T20:15:09.060Z,99594.23
2018-04-16T20:17:36.779Z,99589.94
2018-04-16T20:20:05.343Z,99596.61
2018-04-16T20:22:32.908Z,99596.41
2018-04-16T20:25:00.471Z,99588.09
2018-04-16T20:27:28.918Z,99609.44
2018-04-16T20:29:57.075Z,99592.66
2018-04-16T20:32:24.572Z,99584.36
2018-04-16T20:34:52.084Z,99586.41
2018-04-16T20:37:19.610Z,99589.17
2018-04-16T20:39:47.123Z,99602.13
2018-04-16T20:42:14.602Z,99596.70
2018-04-16T20:44:42.149Z,99612.41
2018-04-16T20:47:09.658Z,99599.41
2018-04-16T20:49:37.139Z,99603.27
2018-04-16T20:52:04.829Z,99600.30
2018-04-16T20:54:33.637Z,99603.80
2018-04-16T20:57:01.127Z,99606.94
2018-04-16T20:59:28.880Z,99603.41
2018-04-16T21:01:56.337Z,99606.64
2018-04-16T21:04:23.961Z,99607.89
2018-04-16T21:06:51.499Z,99606.70
2018-04-16T21:11:51.777Z,99612.61
2018-04-16T21:14:20.570Z,99615.34
2018-04-16T21:16:48.195Z,99615.74
2018-04-16T21:19:16.938Z,99620.02
2018-04-16T21:21:44.458Z,99620.95
2018-04-16T21:24:12.007Z,99627.80
2018-04-16T21:26:39.815Z,99630.94
2018-04-16T21:29:07.327Z,99640.25
2018-04-16T21:31:35.631Z,99634.78
2018-04-16T21:34:03.132Z,99635.97
2018-04-16T21:36:30.607Z,99638.33
2018-04-16T21:39:00.958Z,99641.48
2018-04-16T21:41:41.782Z,99644.90
2018-04-16T21:46:43.286Z,99653.03
2018-04-16T21:49:12.156Z,99649.17
2018-04-16T21:51:40.334Z,99657.05
2018-04-16T21:54:07.895Z,99662.50
2018-04-16T21:59:12.588Z,99664.05
2018-04-16T22:01:40.163Z,99661.37
2018-04-16T22:04:08.252Z,99674.61
2018-04-16T22:06:39.608Z,99673.95
2018-04-16T22:11:40.110Z,99681.65
2018-04-16T22:14:08.770Z,99684.66
2018-04-16T22:16:36.314Z,99690.72
2018-04-16T22:19:03.838Z,99699.33
2018-04-16T22:21:32.711Z,99699.31
2018-04-16T22:24:00.227Z,99705.27
2018-04-16T22:26:27.703Z,99709.25
2018-04-16T22:28:55.216Z,99718.02
2018-04-16T22:31:22.695Z,99706.83
2018-04-16T22:33:50.183Z,99709.74
2018-04-16T22:36:17.685Z,99707.00
2018-04-16T22:38:46.399Z,99713.70
2018-04-16T22:41:13.848Z,99710.73
2018-04-16T22:43:41.315Z,99712.62
2018-04-16T22:46:08.838Z,99719.21
2018-04-16T22:48:36.497Z,99722.05
2018-04-16T22:51:03.993Z,99725.34
2018-04-16T22:53:32.486Z,99726.50
2018-04-16T22:56:00.236Z,99725.49
2018-04-16T22:58:27.757Z,99726.50
2018-04-16T23:00:55.267Z,99726.64
2018-04-16T23:03:22.786Z,99721.28
2018-04-16T23:05:50.325Z,99728.05
2018-04-16T23:08:17.838Z,99731.30
2018-04-16T23:10:45.361Z,99733.47
2018-04-16T23:13:12.857Z,99737.69
2018-04-16T23:15:40.370Z,99733.73
2018-04-16T23:18:07.908Z,99732.95
2018-04-16T23:20:35.486Z,99729.77
2018-04-16T23:23:03.010Z,99733.72
2018-04-16T23:25:30.599Z,99739.68
2018-04-16T23:27:58.119Z,99741.56
2018-04-16T23:30:25.627Z,99737.86
2018-04-16T23:32:53.093Z,99733.63
2018-04-16T23:35:20.595Z,99739.06
2018-04-16T23:37:48.054Z,99735.97
2018-04-16T23:40:16.892Z,99733.12
2018-04-16T23:42:44.380Z,99750.96
2018-04-16T23:45:11.836Z,99746.57
2018-04-16T23:47:39.322Z,99747.65
2018-04-16T23:50:06.837Z,99754.52
2018-04-16T23:52:34.349Z,99759.47
2018-04-16T23:55:01.828Z,99781.34
2018-04-16T23:57:29.483Z,99768.81
2018-04-16T23:59:57.666Z,99765.97
